Melrose Vista, Florida
Current Conditions -  °F | °C
As of 10:53 AM on Friday 24 Oct 2014 (Local Time) from KFLL Reporting Station
Overcast Overcast  
Wind Chill: 79°   Ceiling: 2500
Heat Index: 82°   Visibility: 10mi
Dew Point: 70°   Wind: 15mph
Humidity: 74%   Direction: 40°NE
Pressure: 29.88"   Gusts: 30mph
Location:  26.0861°N, 80.1822°W
Report Text: KFLL 241453Z 04013G26KT 10SM BKN025 BKN036 OVC047 26/21 A2988 RMK AO2 PK WND 06027/1428 SLP118 60000 T02610211 51015
Loading
Personal Weather Stations






























Interactive Weather Map
Tropical Storm Tracking
New forecast layout! Learn more

10-Day Weather Forecast

Advertisements
Track Severe Weather on mobile